Cavite, Philippines
Current Conditions -  °F | °C
As of 12:00 PM on Friday 28 Nov 2014 (Local Time) from RPLL Reporting Station
Broken Clouds Broken Clouds  
Wind Chill: 88°   Ceiling: 10000
Heat Index: 96°   Visibility: 6mi
Dew Point: 73°   Wind: 12mph
Humidity: 62%   Direction: 100°E
Pressure: 29.85"   Gusts: NA
Location:  14.47°N, 120.9°E
Report Text: RPLL 280400Z 10010KT 060V140 9999 SCT023 BKN100 31/23 Q1011 NOSIG RMK A2985
Loading
Personal Weather Stations






























Interactive Weather Map New forecast layout! Learn more

10-Day Weather Forecast

Advertisements
Track Severe Weather on mobile